sensor_id;sensor_type;location;lat;lon;timestamp;pressure;altitude;pressure_sealevel;temperature;humidity
75039;BME280;63609;49.992;14.512;2023-06-19T00:03:31;97922.97;;;15.01;54.36
75039;BME280;63609;49.992;14.512;2023-06-19T00:05:58;97915.25;;;15.36;53.66
75039;BME280;63609;49.992;14.512;2023-06-19T00:08:26;97908.56;;;15.47;52.88
75039;BME280;63609;49.992;14.512;2023-06-19T00:10:54;97912.53;;;15.21;53.39
75039;BME280;63609;49.992;14.512;2023-06-19T00:13:21;97911.22;;;15.32;53.58
75039;BME280;63609;49.992;14.512;2023-06-19T00:15:48;97909.94;;;15.28;53.33
75039;BME280;63609;49.992;14.512;2023-06-19T00:18:14;97912.72;;;15.20;53.77
75039;BME280;63609;49.992;14.512;2023-06-19T00:20:42;97913.84;;;15.11;53.56
75039;BME280;63609;49.992;14.512;2023-06-19T00:23:12;97913.22;;;15.00;54.52
75039;BME280;63609;49.992;14.512;2023-06-19T00:25:41;97909.84;;;15.06;53.67
75039;BME280;63609;49.992;14.512;2023-06-19T00:28:10;97910.31;;;15.10;54.43
75039;BME280;63609;49.992;14.512;2023-06-19T00:30:41;97918.00;;;15.28;54.03
75039;BME280;63609;49.992;14.512;2023-06-19T00:33:08;97915.13;;;15.15;53.79
75039;BME280;63609;49.992;14.512;2023-06-19T00:35:35;97915.59;;;15.03;53.88
75039;BME280;63609;49.992;14.512;2023-06-19T00:38:02;97902.16;;;15.03;54.76
75039;BME280;63609;49.992;14.512;2023-06-19T00:40:31;97907.69;;;14.41;56.51
75039;BME280;63609;49.992;14.512;2023-06-19T00:42:59;97906.25;;;14.54;55.80
75039;BME280;63609;49.992;14.512;2023-06-19T00:45:26;97895.28;;;14.78;54.84
75039;BME280;63609;49.992;14.512;2023-06-19T00:47:57;97895.13;;;14.80;55.52
75039;BME280;63609;49.992;14.512;2023-06-19T00:50:27;97896.59;;;14.82;55.13
75039;BME280;63609;49.992;14.512;2023-06-19T00:52:54;97892.91;;;14.98;54.18
75039;BME280;63609;49.992;14.512;2023-06-19T00:55:21;97890.56;;;14.80;53.87
75039;BME280;63609;49.992;14.512;2023-06-19T00:57:49;97891.41;;;14.81;54.22
75039;BME280;63609;49.992;14.512;2023-06-19T01:00:17;97880.38;;;14.75;54.21
75039;BME280;63609;49.992;14.512;2023-06-19T01:02:46;97887.44;;;14.54;56.48
75039;BME280;63609;49.992;14.512;2023-06-19T01:05:14;97881.97;;;14.47;55.11
75039;BME280;63609;49.992;14.512;2023-06-19T01:07:57;97887.91;;;14.34;56.96
75039;BME280;63609;49.992;14.512;2023-06-19T01:10:39;97886.44;;;14.32;56.16
75039;BME280;63609;49.992;14.512;2023-06-19T01:15:56;97879.56;;;14.29;56.49
75039;BME280;63609;49.992;14.512;2023-06-19T01:18:23;97879.19;;;14.09;57.67
75039;BME280;63609;49.992;14.512;2023-06-19T01:20:51;97877.69;;;14.15;56.21
75039;BME280;63609;49.992;14.512;2023-06-19T01:23:18;97875.06;;;13.99;56.89
75039;BME280;63609;49.992;14.512;2023-06-19T01:25:45;97871.66;;;14.13;56.56
75039;BME280;63609;49.992;14.512;2023-06-19T01:28:13;97873.19;;;13.99;57.91
75039;BME280;63609;49.992;14.512;2023-06-19T01:30:41;97873.78;;;14.18;55.82
75039;BME280;63609;49.992;14.512;2023-06-19T01:33:20;97875.56;;;14.25;55.69
75039;BME280;63609;49.992;14.512;2023-06-19T01:35:50;97870.38;;;14.24;55.82
75039;BME280;63609;49.992;14.512;2023-06-19T01:38:22;97872.59;;;14.20;55.28
75039;BME280;63609;49.992;14.512;2023-06-19T01:40:54;97870.09;;;14.19;55.54
75039;BME280;63609;49.992;14.512;2023-06-19T01:43:23;97869.00;;;14.05;56.16
75039;BME280;63609;49.992;14.512;2023-06-19T01:45:51;97855.06;;;14.01;55.54
75039;BME280;63609;49.992;14.512;2023-06-19T01:48:18;97857.25;;;14.06;55.33
75039;BME280;63609;49.992;14.512;2023-06-19T01:50:46;97858.25;;;14.05;55.65
75039;BME280;63609;49.992;14.512;2023-06-19T01:53:14;97864.88;;;13.16;59.25
75039;BME280;63609;49.992;14.512;2023-06-19T01:55:41;97865.97;;;13.46;56.92
75039;BME280;63609;49.992;14.512;2023-06-19T01:58:08;97865.22;;;13.60;55.76
75039;BME280;63609;49.992;14.512;2023-06-19T02:00:35;97867.06;;;13.20;57.69
75039;BME280;63609;49.992;14.512;2023-06-19T02:03:03;97868.22;;;13.26;57.41
75039;BME280;63609;49.992;14.512;2023-06-19T02:05:31;97869.88;;;13.27;57.04
75039;BME280;63609;49.992;14.512;2023-06-19T02:08:00;97872.69;;;13.34;57.84
75039;BME280;63609;49.992;14.512;2023-06-19T02:10:27;97875.72;;;13.39;57.88
75039;BME280;63609;49.992;14.512;2023-06-19T02:12:55;97867.63;;;13.47;57.75
75039;BME280;63609;49.992;14.512;2023-06-19T02:15:22;97866.41;;;13.58;57.76
75039;BME280;63609;49.992;14.512;2023-06-19T02:17:49;97863.31;;;13.69;57.12
75039;BME280;63609;49.992;14.512;2023-06-19T02:20:15;97871.41;;;13.61;57.79
75039;BME280;63609;49.992;14.512;2023-06-19T02:22:42;97874.09;;;13.61;57.95
75039;BME280;63609;49.992;14.512;2023-06-19T02:25:09;97866.50;;;13.72;57.26
75039;BME280;63609;49.992;14.512;2023-06-19T02:27:36;97858.13;;;13.67;56.53
75039;BME280;63609;49.992;14.512;2023-06-19T02:30:04;97862.34;;;13.62;56.71
75039;BME280;63609;49.992;14.512;2023-06-19T02:32:31;97871.72;;;13.66;56.93
75039;BME280;63609;49.992;14.512;2023-06-19T02:34:58;97872.97;;;13.55;56.21
75039;BME280;63609;49.992;14.512;2023-06-19T02:37:25;97869.88;;;13.66;56.81
75039;BME280;63609;49.992;14.512;2023-06-19T02:39:52;97868.38;;;13.72;57.49
75039;BME280;63609;49.992;14.512;2023-06-19T02:42:19;97873.19;;;13.45;56.36
75039;BME280;63609;49.992;14.512;2023-06-19T02:44:46;97879.56;;;13.44;56.71
75039;BME280;63609;49.992;14.512;2023-06-19T02:47:13;97883.03;;;13.53;56.76
75039;BME280;63609;49.992;14.512;2023-06-19T02:49:40;97880.16;;;13.54;57.07
75039;BME280;63609;49.992;14.512;2023-06-19T02:52:08;97874.75;;;13.63;57.88
75039;BME280;63609;49.992;14.512;2023-06-19T02:54:35;97877.94;;;13.66;57.13
75039;BME280;63609;49.992;14.512;2023-06-19T02:57:02;97879.81;;;13.58;56.39
75039;BME280;63609;49.992;14.512;2023-06-19T02:59:29;97870.81;;;13.50;56.26
75039;BME280;63609;49.992;14.512;2023-06-19T03:01:56;97882.84;;;13.54;56.89
75039;BME280;63609;49.992;14.512;2023-06-19T03:04:23;97874.81;;;13.54;57.56
75039;BME280;63609;49.992;14.512;2023-06-19T03:06:54;97871.25;;;13.15;58.40
75039;BME280;63609;49.992;14.512;2023-06-19T03:09:21;97874.91;;;13.30;58.55
75039;BME280;63609;49.992;14.512;2023-06-19T03:11:48;97879.66;;;13.59;58.04
75039;BME280;63609;49.992;14.512;2023-06-19T03:14:15;97871.94;;;13.56;58.43
75039;BME280;63609;49.992;14.512;2023-06-19T03:16:42;97869.22;;;13.64;58.30
75039;BME280;63609;49.992;14.512;2023-06-19T03:19:09;97862.47;;;13.68;58.65
75039;BME280;63609;49.992;14.512;2023-06-19T03:21:36;97858.94;;;13.76;57.24
75039;BME280;63609;49.992;14.512;2023-06-19T03:24:04;97848.81;;;13.86;57.33
75039;BME280;63609;49.992;14.512;2023-06-19T03:26:34;97853.09;;;13.95;57.80
75039;BME280;63609;49.992;14.512;2023-06-19T03:29:02;97861.16;;;13.95;57.23
75039;BME280;63609;49.992;14.512;2023-06-19T03:31:42;97866.47;;;14.03;57.83
75039;BME280;63609;49.992;14.512;2023-06-19T03:34:09;97861.56;;;14.15;58.39
75039;BME280;63609;49.992;14.512;2023-06-19T03:36:37;97863.41;;;14.14;58.77
75039;BME280;63609;49.992;14.512;2023-06-19T03:39:09;97865.66;;;14.26;58.48
75039;BME280;63609;49.992;14.512;2023-06-19T03:41:37;97858.94;;;14.30;58.16
75039;BME280;63609;49.992;14.512;2023-06-19T03:44:05;97868.25;;;14.42;57.78
75039;BME280;63609;49.992;14.512;2023-06-19T03:46:32;97864.66;;;14.50;57.26
75039;BME280;63609;49.992;14.512;2023-06-19T03:48:59;97869.91;;;14.43;57.13
75039;BME280;63609;49.992;14.512;2023-06-19T03:51:28;97868.75;;;14.60;56.98
75039;BME280;63609;49.992;14.512;2023-06-19T03:53:55;97876.22;;;14.50;57.39
75039;BME280;63609;49.992;14.512;2023-06-19T03:56:22;97873.53;;;14.50;57.02
75039;BME280;63609;49.992;14.512;2023-06-19T03:58:50;97871.91;;;14.64;57.56
75039;BME280;63609;49.992;14.512;2023-06-19T04:01:18;97871.53;;;14.67;57.75
75039;BME280;63609;49.992;14.512;2023-06-19T04:03:45;97867.81;;;14.68;57.65
75039;BME280;63609;49.992;14.512;2023-06-19T04:06:12;97863.66;;;14.65;57.97
75039;BME280;63609;49.992;14.512;2023-06-19T04:08:39;97871.34;;;14.68;57.65
75039;BME280;63609;49.992;14.512;2023-06-19T04:11:06;97870.59;;;14.60;58.15
75039;BME280;63609;49.992;14.512;2023-06-19T04:13:33;97867.50;;;14.71;56.95
75039;BME280;63609;49.992;14.512;2023-06-19T04:16:00;97863.56;;;14.59;57.62
75039;BME280;63609;49.992;14.512;2023-06-19T04:18:27;97863.72;;;14.57;57.77
75039;BME280;63609;49.992;14.512;2023-06-19T04:20:55;97877.09;;;14.65;57.49
75039;BME280;63609;49.992;14.512;2023-06-19T04:23:22;97863.03;;;14.78;56.70
75039;BME280;63609;49.992;14.512;2023-06-19T04:25:49;97863.50;;;14.82;56.18
75039;BME280;63609;49.992;14.512;2023-06-19T04:28:16;97867.50;;;14.86;56.19
75039;BME280;63609;49.992;14.512;2023-06-19T04:30:43;97864.34;;;14.97;56.16
75039;BME280;63609;49.992;14.512;2023-06-19T04:33:10;97867.19;;;15.18;55.93
75039;BME280;63609;49.992;14.512;2023-06-19T04:35:37;97870.22;;;15.30;55.93
75039;BME280;63609;49.992;14.512;2023-06-19T04:38:07;97872.25;;;15.57;56.24
75039;BME280;63609;49.992;14.512;2023-06-19T04:40:34;97869.81;;;15.77;55.23
75039;BME280;63609;49.992;14.512;2023-06-19T04:43:01;97878.59;;;15.86;54.76
75039;BME280;63609;49.992;14.512;2023-06-19T04:45:29;97879.72;;;16.06;53.98
75039;BME280;63609;49.992;14.512;2023-06-19T04:47:56;97884.72;;;16.09;54.19
75039;BME280;63609;49.992;14.512;2023-06-19T04:50:23;97882.78;;;15.88;54.31
75039;BME280;63609;49.992;14.512;2023-06-19T04:52:51;97896.97;;;16.33;54.08
75039;BME280;63609;49.992;14.512;2023-06-19T04:55:18;97884.25;;;16.48;52.69
75039;BME280;63609;49.992;14.512;2023-06-19T04:57:45;97888.69;;;16.56;51.71
75039;BME280;63609;49.992;14.512;2023-06-19T05:00:13;97894.59;;;16.66;51.97
75039;BME280;63609;49.992;14.512;2023-06-19T05:02:41;97893.75;;;16.66;53.70
75039;BME280;63609;49.992;14.512;2023-06-19T05:05:10;97892.78;;;16.30;55.39
75039;BME280;63609;49.992;14.512;2023-06-19T05:07:37;97898.97;;;16.46;55.04
75039;BME280;63609;49.992;14.512;2023-06-19T05:10:05;97901.25;;;16.49;54.58
75039;BME280;63609;49.992;14.512;2023-06-19T05:12:34;97904.88;;;16.35;54.59
75039;BME280;63609;49.992;14.512;2023-06-19T05:15:02;97909.84;;;16.59;54.63
75039;BME280;63609;49.992;14.512;2023-06-19T05:17:29;97908.00;;;16.38;55.39
75039;BME280;63609;49.992;14.512;2023-06-19T05:19:56;97911.19;;;16.06;54.79
75039;BME280;63609;49.992;14.512;2023-06-19T05:22:24;97908.78;;;16.32;54.08
75039;BME280;63609;49.992;14.512;2023-06-19T05:24:51;97906.06;;;16.53;55.38
75039;BME280;63609;49.992;14.512;2023-06-19T05:27:18;97901.00;;;16.65;54.32
75039;BME280;63609;49.992;14.512;2023-06-19T05:29:45;97906.44;;;16.93;53.67
75039;BME280;63609;49.992;14.512;2023-06-19T05:32:12;97908.75;;;16.96;53.15
75039;BME280;63609;49.992;14.512;2023-06-19T05:34:39;97909.16;;;17.55;51.71
75039;BME280;63609;49.992;14.512;2023-06-19T05:37:06;97925.63;;;17.33;52.51
75039;BME280;63609;49.992;14.512;2023-06-19T05:39:33;97934.19;;;17.15;53.16
75039;BME280;63609;49.992;14.512;2023-06-19T05:42:00;97933.91;;;17.31;51.72
75039;BME280;63609;49.992;14.512;2023-06-19T05:44:28;97939.50;;;17.30;53.91
75039;BME280;63609;49.992;14.512;2023-06-19T05:46:55;97934.00;;;17.79;51.61
75039;BME280;63609;49.992;14.512;2023-06-19T05:49:22;97930.59;;;18.05;51.89
75039;BME280;63609;49.992;14.512;2023-06-19T05:51:49;97937.78;;;18.45;50.21
75039;BME280;63609;49.992;14.512;2023-06-19T05:54:15;97937.63;;;18.60;49.13
75039;BME280;63609;49.992;14.512;2023-06-19T05:56:44;97934.31;;;18.71;49.03
75039;BME280;63609;49.992;14.512;2023-06-19T05:59:11;97941.78;;;18.63;49.67
75039;BME280;63609;49.992;14.512;2023-06-19T06:01:41;97945.06;;;18.52;49.98
75039;BME280;63609;49.992;14.512;2023-06-19T06:04:08;97942.41;;;18.78;49.47
75039;BME280;63609;49.992;14.512;2023-06-19T06:06:35;97941.94;;;18.35;49.65
75039;BME280;63609;49.992;14.512;2023-06-19T06:09:02;97945.44;;;18.29;49.66
75039;BME280;63609;49.992;14.512;2023-06-19T06:11:29;97956.28;;;18.35;50.65
75039;BME280;63609;49.992;14.512;2023-06-19T06:13:56;97957.19;;;18.08;51.05
75039;BME280;63609;49.992;14.512;2023-06-19T06:16:23;97961.59;;;17.74;50.80
75039;BME280;63609;49.992;14.512;2023-06-19T06:18:50;97955.44;;;17.94;51.11
75039;BME280;63609;49.992;14.512;2023-06-19T06:21:17;97973.25;;;18.97;48.30
75039;BME280;63609;49.992;14.512;2023-06-19T06:23:44;97974.25;;;18.69;49.39
75039;BME280;63609;49.992;14.512;2023-06-19T06:26:11;97974.66;;;18.66;49.88
75039;BME280;63609;49.992;14.512;2023-06-19T06:28:39;97983.97;;;18.51;49.53
75039;BME280;63609;49.992;14.512;2023-06-19T06:31:06;97984.69;;;18.92;49.65
75039;BME280;63609;49.992;14.512;2023-06-19T06:33:33;97984.03;;;19.56;48.23
75039;BME280;63609;49.992;14.512;2023-06-19T06:36:01;97990.75;;;19.27;49.20
75039;BME280;63609;49.992;14.512;2023-06-19T06:38:28;97987.22;;;19.27;49.14
75039;BME280;63609;49.992;14.512;2023-06-19T06:40:55;97991.31;;;18.83;50.06
75039;BME280;63609;49.992;14.512;2023-06-19T06:43:22;97992.84;;;19.32;48.68
75039;BME280;63609;49.992;14.512;2023-06-19T06:45:49;97992.00;;;19.58;48.91
75039;BME280;63609;49.992;14.512;2023-06-19T06:48:16;97989.03;;;19.79;47.66
75039;BME280;63609;49.992;14.512;2023-06-19T06:50:43;97989.75;;;20.13;46.95
75039;BME280;63609;49.992;14.512;2023-06-19T06:53:10;98002.38;;;19.81;47.96
75039;BME280;63609;49.992;14.512;2023-06-19T06:55:37;98002.59;;;19.00;46.96
75039;BME280;63609;49.992;14.512;2023-06-19T06:58:04;97993.25;;;19.09;46.28
75039;BME280;63609;49.992;14.512;2023-06-19T07:00:31;97998.81;;;18.88;46.27
75039;BME280;63609;49.992;14.512;2023-06-19T07:02:59;97997.59;;;19.23;48.03
75039;BME280;63609;49.992;14.512;2023-06-19T07:05:26;98004.88;;;19.03;48.60
75039;BME280;63609;49.992;14.512;2023-06-19T07:07:53;98000.03;;;18.65;49.30
75039;BME280;63609;49.992;14.512;2023-06-19T07:10:20;98006.66;;;18.56;50.70
75039;BME280;63609;49.992;14.512;2023-06-19T07:12:48;98001.91;;;18.71;49.55
75039;BME280;63609;49.992;14.512;2023-06-19T07:15:15;98020.41;;;18.61;50.60
75039;BME280;63609;49.992;14.512;2023-06-19T07:17:46;98021.06;;;18.76;49.57
75039;BME280;63609;49.992;14.512;2023-06-19T07:20:14;98028.53;;;18.74;49.47
75039;BME280;63609;49.992;14.512;2023-06-19T07:22:42;98028.66;;;18.46;49.94
75039;BME280;63609;49.992;14.512;2023-06-19T07:25:11;98024.94;;;18.54;50.76
75039;BME280;63609;49.992;14.512;2023-06-19T07:27:41;98024.44;;;18.92;50.02
75039;BME280;63609;49.992;14.512;2023-06-19T07:30:08;98029.88;;;19.18;49.66
75039;BME280;63609;49.992;14.512;2023-06-19T07:32:35;98031.56;;;19.32;48.98
75039;BME280;63609;49.992;14.512;2023-06-19T07:35:02;98028.84;;;19.19;48.37
75039;BME280;63609;49.992;14.512;2023-06-19T07:37:30;98027.38;;;19.23;48.83
75039;BME280;63609;49.992;14.512;2023-06-19T07:40:01;98016.53;;;19.83;48.20
75039;BME280;63609;49.992;14.512;2023-06-19T07:42:28;98024.69;;;19.50;51.03
75039;BME280;63609;49.992;14.512;2023-06-19T07:44:55;98016.13;;;19.20;50.44
75039;BME280;63609;49.992;14.512;2023-06-19T07:47:22;98030.31;;;19.35;50.72
75039;BME280;63609;49.992;14.512;2023-06-19T07:49:49;98023.03;;;19.62;50.25
75039;BME280;63609;49.992;14.512;2023-06-19T07:52:16;98026.34;;;19.64;49.81
75039;BME280;63609;49.992;14.512;2023-06-19T07:55:09;98027.31;;;20.09;50.93
75039;BME280;63609;49.992;14.512;2023-06-19T07:57:36;98025.50;;;19.90;50.33
75039;BME280;63609;49.992;14.512;2023-06-19T08:00:04;98018.81;;;19.92;51.40
75039;BME280;63609;49.992;14.512;2023-06-19T08:02:40;98027.38;;;19.89;50.62
75039;BME280;63609;49.992;14.512;2023-06-19T08:05:08;98021.13;;;19.49;51.66
75039;BME280;63609;49.992;14.512;2023-06-19T08:07:36;98018.63;;;19.74;51.09
75039;BME280;63609;49.992;14.512;2023-06-19T08:10:03;98020.28;;;19.88;53.03
75039;BME280;63609;49.992;14.512;2023-06-19T08:12:41;98011.94;;;19.83;51.27
75039;BME280;63609;49.992;14.512;2023-06-19T08:15:10;98005.44;;;20.04;49.80
75039;BME280;63609;49.992;14.512;2023-06-19T08:17:37;98014.56;;;20.16;50.81
75039;BME280;63609;49.992;14.512;2023-06-19T08:20:04;98008.59;;;20.01;51.35
75039;BME280;63609;49.992;14.512;2023-06-19T08:22:31;98003.63;;;19.78;51.79
75039;BME280;63609;49.992;14.512;2023-06-19T08:24:59;98007.56;;;19.89;52.06
75039;BME280;63609;49.992;14.512;2023-06-19T08:27:27;98018.25;;;19.37;54.68
75039;BME280;63609;49.992;14.512;2023-06-19T08:29:54;98008.88;;;19.33;55.24
75039;BME280;63609;49.992;14.512;2023-06-19T08:32:21;98011.88;;;20.10;55.71
75039;BME280;63609;49.992;14.512;2023-06-19T08:34:48;98000.78;;;20.24;52.76
75039;BME280;63609;49.992;14.512;2023-06-19T08:37:16;98000.47;;;20.46;51.37
75039;BME280;63609;49.992;14.512;2023-06-19T08:39:45;98001.38;;;20.33;52.08
75039;BME280;63609;49.992;14.512;2023-06-19T08:42:11;97988.06;;;20.25;50.73
75039;BME280;63609;49.992;14.512;2023-06-19T08:44:39;97987.41;;;20.74;51.71
75039;BME280;63609;49.992;14.512;2023-06-19T08:47:06;97994.50;;;20.75;48.18
75039;BME280;63609;49.992;14.512;2023-06-19T08:49:35;97983.25;;;20.72;49.86
75039;BME280;63609;49.992;14.512;2023-06-19T08:52:03;97991.72;;;20.82;51.05
75039;BME280;63609;49.992;14.512;2023-06-19T08:54:31;97978.09;;;20.12;52.51
75039;BME280;63609;49.992;14.512;2023-06-19T08:57:02;97988.41;;;19.84;52.03
75039;BME280;63609;49.992;14.512;2023-06-19T08:59:30;97986.19;;;20.25;53.16
75039;BME280;63609;49.992;14.512;2023-06-19T09:01:58;97985.84;;;20.47;51.36
75039;BME280;63609;49.992;14.512;2023-06-19T09:04:29;97993.28;;;20.71;51.36
75039;BME280;63609;49.992;14.512;2023-06-19T09:07:03;97992.31;;;20.52;49.23
75039;BME280;63609;49.992;14.512;2023-06-19T09:09:45;97991.50;;;20.00;52.16
75039;BME280;63609;49.992;14.512;2023-06-19T09:12:15;97989.22;;;19.91;50.95
75039;BME280;63609;49.992;14.512;2023-06-19T09:14:48;97989.78;;;20.06;51.41
75039;BME280;63609;49.992;14.512;2023-06-19T09:17:21;97991.81;;;20.24;52.60
75039;BME280;63609;49.992;14.512;2023-06-19T09:19:54;98002.06;;;20.67;50.73
75039;BME280;63609;49.992;14.512;2023-06-19T09:22:24;97995.03;;;20.46;49.03
75039;BME280;63609;49.992;14.512;2023-06-19T09:25:25;97994.53;;;20.69;49.71
75039;BME280;63609;49.992;14.512;2023-06-19T09:31:48;98001.41;;;21.03;48.32
75039;BME280;63609;49.992;14.512;2023-06-19T09:34:15;97995.28;;;21.89;45.99
75039;BME280;63609;49.992;14.512;2023-06-19T09:36:48;97999.00;;;22.91;45.42
75039;BME280;63609;49.992;14.512;2023-06-19T09:39:18;97992.25;;;23.58;44.17
75039;BME280;63609;49.992;14.512;2023-06-19T09:41:50;97986.06;;;23.16;45.01
75039;BME280;63609;49.992;14.512;2023-06-19T09:44:20;97983.72;;;22.90;44.12
75039;BME280;63609;49.992;14.512;2023-06-19T09:47:03;97981.63;;;22.62;44.26
75039;BME280;63609;49.992;14.512;2023-06-19T09:49:35;97984.81;;;22.40;44.51
75039;BME280;63609;49.992;14.512;2023-06-19T09:52:02;97986.75;;;23.12;42.43
75039;BME280;63609;49.992;14.512;2023-06-19T09:54:30;97994.28;;;23.51;42.04
75039;BME280;63609;49.992;14.512;2023-06-19T09:56:59;97991.41;;;24.05;38.20
75039;BME280;63609;49.992;14.512;2023-06-19T09:59:26;97994.94;;;24.69;36.26
75039;BME280;63609;49.992;14.512;2023-06-19T10:01:55;97986.50;;;24.30;37.92
75039;BME280;63609;49.992;14.512;2023-06-19T10:04:22;97987.06;;;25.01;38.45
75039;BME280;63609;49.992;14.512;2023-06-19T10:06:49;97987.19;;;24.77;37.73
75039;BME280;63609;49.992;14.512;2023-06-19T10:09:17;97976.69;;;24.86;36.40
75039;BME280;63609;49.992;14.512;2023-06-19T10:11:49;97984.88;;;25.14;35.46
75039;BME280;63609;49.992;14.512;2023-06-19T10:14:20;97979.72;;;25.35;35.36
75039;BME280;63609;49.992;14.512;2023-06-19T10:16:48;97983.47;;;25.45;37.96
75039;BME280;63609;49.992;14.512;2023-06-19T10:19:16;97990.34;;;25.65;36.30
75039;BME280;63609;49.992;14.512;2023-06-19T10:21:49;97985.72;;;26.69;35.46
75039;BME280;63609;49.992;14.512;2023-06-19T10:24:18;97992.50;;;26.18;33.54
75039;BME280;63609;49.992;14.512;2023-06-19T10:26:59;97992.31;;;27.22;34.13
75039;BME280;63609;49.992;14.512;2023-06-19T10:29:40;97987.28;;;26.65;32.35
75039;BME280;63609;49.992;14.512;2023-06-19T10:32:16;97993.34;;;26.89;33.42
75039;BME280;63609;49.992;14.512;2023-06-19T10:34:48;97991.72;;;26.93;32.03
75039;BME280;63609;49.992;14.512;2023-06-19T10:37:17;97994.94;;;27.12;33.06
75039;BME280;63609;49.992;14.512;2023-06-19T10:39:47;97985.97;;;26.68;32.82
75039;BME280;63609;49.992;14.512;2023-06-19T10:42:14;97987.63;;;26.69;33.74
75039;BME280;63609;49.992;14.512;2023-06-19T10:44:41;97993.38;;;27.53;31.05
75039;BME280;63609;49.992;14.512;2023-06-19T10:47:09;97978.91;;;27.63;31.33
75039;BME280;63609;49.992;14.512;2023-06-19T10:49:38;97981.91;;;26.97;31.39
75039;BME280;63609;49.992;14.512;2023-06-19T10:52:06;97981.72;;;28.20;30.75
75039;BME280;63609;49.992;14.512;2023-06-19T10:54:33;97979.94;;;27.89;31.38
75039;BME280;63609;49.992;14.512;2023-06-19T10:57:04;97975.69;;;28.81;29.90
75039;BME280;63609;49.992;14.512;2023-06-19T10:59:33;97965.69;;;27.97;31.21
75039;BME280;63609;49.992;14.512;2023-06-19T11:02:00;97958.13;;;29.17;30.20
75039;BME280;63609;49.992;14.512;2023-06-19T11:04:28;97959.47;;;29.61;29.37
75039;BME280;63609;49.992;14.512;2023-06-19T11:06:57;97962.22;;;29.81;29.79
75039;BME280;63609;49.992;14.512;2023-06-19T11:09:31;97963.16;;;30.41;28.64
75039;BME280;63609;49.992;14.512;2023-06-19T11:11:58;97960.47;;;30.75;28.12
75039;BME280;63609;49.992;14.512;2023-06-19T11:14:29;97960.72;;;30.79;27.26
75039;BME280;63609;49.992;14.512;2023-06-19T11:16:57;97960.72;;;30.84;27.29
75039;BME280;63609;49.992;14.512;2023-06-19T11:19:30;97959.16;;;30.62;27.83
75039;BME280;63609;49.992;14.512;2023-06-19T11:21:57;97959.53;;;31.00;28.45
75039;BME280;63609;49.992;14.512;2023-06-19T11:24:29;97961.94;;;31.07;26.90
75039;BME280;63609;49.992;14.512;2023-06-19T11:26:57;97960.41;;;31.29;25.63
75039;BME280;63609;49.992;14.512;2023-06-19T11:29:28;97962.06;;;31.59;24.85
75039;BME280;63609;49.992;14.512;2023-06-19T11:34:36;97959.63;;;32.53;25.24
75039;BME280;63609;49.992;14.512;2023-06-19T11:37:13;97953.47;;;31.66;25.70
75039;BME280;63609;49.992;14.512;2023-06-19T11:39:45;97957.56;;;31.05;25.33
75039;BME280;63609;49.992;14.512;2023-06-19T11:42:13;97954.88;;;31.63;25.29
75039;BME280;63609;49.992;14.512;2023-06-19T11:45:04;97947.53;;;32.49;22.94
75039;BME280;63609;49.992;14.512;2023-06-19T11:47:34;97949.69;;;32.76;22.88
75039;BME280;63609;49.992;14.512;2023-06-19T11:50:03;97946.75;;;33.05;21.77
75039;BME280;63609;49.992;14.512;2023-06-19T11:52:31;97944.16;;;32.95;20.43
75039;BME280;63609;49.992;14.512;2023-06-19T11:54:58;97935.75;;;32.20;22.05
75039;BME280;63609;49.992;14.512;2023-06-19T11:57:26;97941.66;;;33.31;21.16
75039;BME280;63609;49.992;14.512;2023-06-19T11:59:54;97939.94;;;34.09;22.27
75039;BME280;63609;49.992;14.512;2023-06-19T12:02:21;97935.72;;;33.70;20.58
75039;BME280;63609;49.992;14.512;2023-06-19T12:04:48;97929.56;;;33.73;21.00
75039;BME280;63609;49.992;14.512;2023-06-19T12:07:18;97920.53;;;33.16;21.61
75039;BME280;63609;49.992;14.512;2023-06-19T12:09:45;97924.91;;;32.23;20.96
75039;BME280;63609;49.992;14.512;2023-06-19T12:12:12;97928.28;;;31.73;23.13
75039;BME280;63609;49.992;14.512;2023-06-19T12:14:39;97921.69;;;32.40;20.50
75039;BME280;63609;49.992;14.512;2023-06-19T12:17:06;97927.91;;;33.26;22.17
75039;BME280;63609;49.992;14.512;2023-06-19T12:19:33;97925.78;;;32.00;22.20
75039;BME280;63609;49.992;14.512;2023-06-19T12:22:04;97926.97;;;31.36;22.99
75039;BME280;63609;49.992;14.512;2023-06-19T12:24:30;97934.19;;;30.98;22.68
75039;BME280;63609;49.992;14.512;2023-06-19T12:26:57;97933.75;;;31.49;22.56
75039;BME280;63609;49.992;14.512;2023-06-19T12:29:24;97931.84;;;30.11;22.71
75039;BME280;63609;49.992;14.512;2023-06-19T12:31:51;97936.94;;;28.82;23.89
75039;BME280;63609;49.992;14.512;2023-06-19T12:34:18;97935.06;;;28.25;23.56
75039;BME280;63609;49.992;14.512;2023-06-19T12:36:56;97935.47;;;28.54;26.36
75039;BME280;63609;49.992;14.512;2023-06-19T12:39:25;97939.69;;;28.82;25.20
75039;BME280;63609;49.992;14.512;2023-06-19T12:41:53;97938.84;;;28.92;28.74
75039;BME280;63609;49.992;14.512;2023-06-19T12:44:22;97943.47;;;28.66;25.47
75039;BME280;63609;49.992;14.512;2023-06-19T12:46:50;97939.56;;;27.84;26.71
75039;BME280;63609;49.992;14.512;2023-06-19T12:49:17;97931.31;;;27.79;24.98
75039;BME280;63609;49.992;14.512;2023-06-19T12:51:44;97937.41;;;27.91;25.73
75039;BME280;63609;49.992;14.512;2023-06-19T12:54:11;97933.81;;;28.48;25.86
75039;BME280;63609;49.992;14.512;2023-06-19T12:56:38;97928.59;;;28.57;25.35
75039;BME280;63609;49.992;14.512;2023-06-19T12:59:05;97938.09;;;28.19;26.76
75039;BME280;63609;49.992;14.512;2023-06-19T13:01:32;97942.88;;;27.44;27.31
75039;BME280;63609;49.992;14.512;2023-06-19T13:03:59;97937.59;;;28.32;26.98
75039;BME280;63609;49.992;14.512;2023-06-19T13:06:27;97943.41;;;27.41;27.41
75039;BME280;63609;49.992;14.512;2023-06-19T13:08:53;97933.81;;;27.12;28.26